Time;durP1;ratioP1;P1;durP2;ratioP2;P2;SDS_P1;SDS_P2;PMS_P1;PMS_P2;Temp;Humidity;BMP_temperature;BMP_pressure;BME280_temperature;BME280_humidity;BME280_pressure;Samples;Min_cycle;Max_cycle;Signal;HPM_P1;HPM_P2
2023/10/19 00:00:33;;;;;;;;;;;;;;;;;;5049853;28;19925;-74
2023/10/19 00:03:02;;;;;;;;;;;;;;;;;;5051995;28;20375;-75
2023/10/19 00:05:29;;;;;;;;;;;;;;;;;;5041069;28;19928;-74
2023/10/19 00:07:57;;;;;;;;;;;;;;;;;;5057521;28;19925;-73
2023/10/19 00:10:24;;;;;;;;;;;;;;;;;;5063242;28;19939;-73
2023/10/19 00:12:59;;;;;;;;;;;;;;;;;;5050793;28;19931;-72
2023/10/19 00:15:28;;;;;;;;;;;;;;;;;;5043648;28;19925;-73
2023/10/19 00:17:55;;;;;;;;;;;;;;;;;;5055510;28;20372;-73
2023/10/19 00:20:36;;;;;;;;;;;;;;;;;;5039777;28;19925;-73
2023/10/19 00:23:05;;;;;;;;;;;;;;;;;;5049814;28;19935;-74
2023/10/19 00:25:32;;;;;;;;;;;;;;;;;;5054457;28;19924;-73
2023/10/19 00:28:00;;;;;;;;;;;;;;;;;;5054969;28;19971;-73
2023/10/19 00:30:31;;;;;;;;;;;;;;;;;;5054987;28;19979;-73
2023/10/19 00:33:03;;;;;;;;;;;;;;;;;;5046111;28;19936;-73
2023/10/19 00:35:35;;;;;;;;;;;;;;;;;;5056982;28;20362;-74
2023/10/19 00:38:21;;;;;;;;;;;;;;;;;;5064173;28;19932;-74
2023/10/19 00:40:48;;;;;;;;;;;;;;;;;;5054849;28;20370;-74
2023/10/19 00:43:17;;;;;;;;;;;;;;;;;;5055016;28;20557;-74
2023/10/19 00:45:46;;;;;;;;;;;;;;;;;;5056078;28;19932;-74
2023/10/19 00:48:13;;;;;;;;;;;;;;;;;;5055033;28;19933;-74
2023/10/19 00:50:41;;;;;;;;;;;;;;;;;;5056148;28;19986;-74
2023/10/19 00:53:12;;;;;;;;;;;;;;;;;;5057441;28;19932;-74
2023/10/19 00:55:39;;;;;;;;;;;;;;;;;;5039737;28;20412;-74
2023/10/19 00:58:13;;;;;;;;;;;;;;;;;;5051773;28;19929;-73
2023/10/19 01:00:44;;;;;;;;;;;;;;;;;;5039556;28;19931;-73
2023/10/19 01:03:13;;;;;;;;;;;;;;;;;;5049856;28;19971;-73
2023/10/19 01:05:47;;;;;;;;;;;;;;;;;;5049335;28;19939;-73
2023/10/19 01:08:23;;;;;;;;;;;;;;;;;;5072456;28;19959;-74
2023/10/19 01:10:52;;;;;;;;;;;;;;;;;;5054419;28;20331;-73
2023/10/19 01:13:26;;;;;;;;;;;;;;;;;;5046858;28;20020;-74
2023/10/19 01:15:54;;;;;;;;;;;;;;;;;;5035939;28;19970;-74
2023/10/19 01:18:22;;;;;;;;;;;;;;;;;;5054313;28;20429;-75
2023/10/19 01:20:51;;;;;;;;;;;;;;;;;;5068948;28;19971;-74
2023/10/19 01:23:25;;;;;;;;;;;;;;;;;;5051207;28;20389;-74
2023/10/19 01:25:59;;;;;;;;;;;;;;;;;;5034948;28;20015;-74
2023/10/19 01:28:28;;;;;;;;;;;;;;;;;;5036099;28;19925;-73
2023/10/19 01:30:56;;;;;;;;;;;;;;;;;;5036241;28;20296;-74
2023/10/19 01:33:24;;;;;;;;;;;;;;;;;;5054662;28;20019;-73
2023/10/19 01:38:36;;;;;;;;;;;;;;;;;;5038618;28;19980;-73
2023/10/19 01:41:05;;;;;;;;;;;;;;;;;;5049005;28;19925;-73
2023/10/19 01:43:32;;;;;;;;;;;;;;;;;;5041899;28;19925;-73
2023/10/19 01:46:04;;;;;;;;;;;;;;;;;;5039245;28;19983;-74
2023/10/19 01:48:33;;;;;;;;;;;;;;;;;;5054417;28;20359;-73
2023/10/19 01:51:00;;;;;;;;;;;;;;;;;;5053984;28;19925;-74
2023/10/19 01:53:26;;;;;;;;;;;;;;;;;;5055686;28;20279;-73
2023/10/19 01:55:57;;;;;;;;;;;;;;;;;;5034065;28;19929;-74
2023/10/19 01:58:25;;;;;;;;;;;;;;;;;;5040338;28;20407;-74
2023/10/19 02:00:54;;;;;;;;;;;;;;;;;;5048432;28;19925;-74
2023/10/19 02:03:22;;;;;;;;;;;;;;;;;;5053980;28;19928;-73
2023/10/19 02:05:50;;;;;;;;;;;;;;;;;;5053641;28;19948;-73
2023/10/19 02:08:17;;;;;;;;;;;;;;;;;;5072367;28;19928;-75
2023/10/19 02:10:44;;;;;;;;;;;;;;;;;;5061006;28;19931;-74
2023/10/19 02:13:15;;;;;;;;;;;;;;;;;;5034571;28;20317;-74
2023/10/19 02:15:41;;;;;;;;;;;;;;;;;;5038667;28;19925;-74
2023/10/19 02:18:08;;;;;;;;;;;;;;;;;;5054240;28;20469;-74
2023/10/19 02:20:34;;;;;;;;;;;;;;;;;;5051977;28;19924;-74
2023/10/19 02:23:03;;;;;;;;;;;;;;;;;;5041826;28;20081;-74
2023/10/19 02:25:31;;;;;;;;;;;;;;;;;;5073058;28;20023;-74
2023/10/19 02:27:58;;;;;;;;;;;;;;;;;;5034601;28;19925;-75
2023/10/19 02:30:24;;;;;;;;;;;;;;;;;;5033879;28;20389;-74
2023/10/19 02:32:53;;;;;;;;;;;;;;;;;;5033945;28;19937;-74
2023/10/19 02:35:19;;;;;;;;;;;;;;;;;;5043004;28;19970;-74
2023/10/19 02:37:46;;;;;;;;;;;;;;;;;;5060966;28;20361;-74
2023/10/19 02:40:19;;;;;;;;;;;;;;;;;;5051911;28;20490;-74
2023/10/19 02:42:47;;;;;;;;;;;;;;;;;;5052787;28;19925;-73
2023/10/19 02:45:15;;;;;;;;;;;;;;;;;;5052771;28;20407;-74
2023/10/19 02:47:42;;;;;;;;;;;;;;;;;;5048879;28;19924;-74
2023/10/19 02:50:13;;;;;;;;;;;;;;;;;;5033940;28;20385;-74
2023/10/19 02:52:40;;;;;;;;;;;;;;;;;;5054212;28;20416;-74
2023/10/19 02:55:07;;;;;;;;;;;;;;;;;;5052106;28;19970;-75
2023/10/19 02:57:33;;;;;;;;;;;;;;;;;;5052948;28;19924;-74
2023/10/19 03:00:07;;;;;;;;;;;;;;;;;;5055245;28;19974;-74
2023/10/19 03:02:33;;;;;;;;;;;;;;;;;;5052695;28;19929;-75
2023/10/19 03:05:00;;;;;;;;;;;;;;;;;;5052316;28;20300;-74
2023/10/19 03:07:27;;;;;;;;;;;;;;;;;;5051990;28;19925;-74
2023/10/19 03:09:54;;;;;;;;;;;;;;;;;;5046647;28;19936;-74
2023/10/19 03:12:20;;;;;;;;;;;;;;;;;;5042623;28;19978;-74
2023/10/19 03:14:48;;;;;;;;;;;;;;;;;;5044294;28;19933;-74
2023/10/19 03:17:14;;;;;;;;;;;;;;;;;;5052840;28;19924;-73
2023/10/19 03:19:42;;;;;;;;;;;;;;;;;;5042809;28;19924;-74
2023/10/19 03:22:09;;;;;;;;;;;;;;;;;;5059326;28;19924;-74
2023/10/19 03:24:36;;;;;;;;;;;;;;;;;;5036360;28;19992;-74
2023/10/19 03:27:08;;;;;;;;;;;;;;;;;;5038864;28;19925;-74
2023/10/19 03:29:38;;;;;;;;;;;;;;;;;;5036205;28;19925;-75
2023/10/19 03:32:05;;;;;;;;;;;;;;;;;;5047231;28;19924;-74
2023/10/19 03:34:32;;;;;;;;;;;;;;;;;;5052730;28;19925;-74
2023/10/19 03:37:05;;;;;;;;;;;;;;;;;;5057123;28;19925;-73
2023/10/19 03:39:33;;;;;;;;;;;;;;;;;;5071052;28;19932;-72
2023/10/19 03:42:00;;;;;;;;;;;;;;;;;;5043614;28;19940;-73
2023/10/19 03:44:39;;;;;;;;;;;;;;;;;;5034697;28;20053;-73
2023/10/19 03:47:11;;;;;;;;;;;;;;;;;;5044814;28;20019;-74
2023/10/19 03:49:39;;;;;;;;;;;;;;;;;;5070216;28;19967;-73
2023/10/19 03:54:59;;;;;;;;;;;;;;;;;;5172250;27;19911;-74
2023/10/19 03:57:29;;;;;;;;;;;;;;;;;;5172090;27;19927;-74
2023/10/19 03:59:57;;;;;;;;;;;;;;;;;;5168042;27;19987;-74
2023/10/19 04:02:24;;;;;;;;;;;;;;;;;;5169839;27;19930;-74
2023/10/19 04:04:52;;;;;;;;;;;;;;;;;;5150984;27;19927;-74
2023/10/19 04:07:21;;;;;;;;;;;;;;;;;;5153235;27;20320;-73
2023/10/19 04:12:31;;;;;;;;;;;;;;;;;;5147952;27;19931;-74
2023/10/19 04:14:58;;;;;;;;;;;;;;;;;;5150913;27;19923;-74
2023/10/19 04:17:26;;;;;;;;;;;;;;;;;;5150783;27;19988;-75
2023/10/19 04:19:53;;;;;;;;;;;;;;;;;;5151248;27;20060;-73
2023/10/19 04:22:23;;;;;;;;;;;;;;;;;;5157767;27;19923;-73
2023/10/19 04:24:50;;;;;;;;;;;;;;;;;;5151186;27;20459;-73
2023/10/19 04:27:17;;;;;;;;;;;;;;;;;;5150689;27;19976;-72
2023/10/19 04:29:45;;;;;;;;;;;;;;;;;;5150738;27;19923;-75
2023/10/19 04:32:14;;;;;;;;;;;;;;;;;;5150704;27;20386;-73
2023/10/19 04:34:41;;;;;;;;;;;;;;;;;;5150858;27;20345;-72
2023/10/19 04:37:12;;;;;;;;;;;;;;;;;;5153770;27;20014;-73
2023/10/19 04:39:39;;;;;;;;;;;;;;;;;;5150342;27;19923;-72
2023/10/19 04:42:06;;;;;;;;;;;;;;;;;;5164356;27;19923;-73
2023/10/19 04:44:34;;;;;;;;;;;;;;;;;;5164859;27;19923;-73
2023/10/19 04:47:01;;;;;;;;;;;;;;;;;;5159954;27;19962;-72
2023/10/19 04:49:28;;;;;;;;;;;;;;;;;;5156855;27;20480;-73
2023/10/19 04:51:55;;;;;;;;;;;;;;;;;;5156306;27;19927;-72
2023/10/19 04:54:22;;;;;;;;;;;;;;;;;;5150533;27;20013;-73
2023/10/19 04:56:50;;;;;;;;;;;;;;;;;;5149917;27;19983;-73
2023/10/19 04:59:17;;;;;;;;;;;;;;;;;;5148855;27;19924;-74
2023/10/19 05:01:44;;;;;;;;;;;;;;;;;;5157410;27;19928;-73
2023/10/19 05:04:12;;;;;;;;;;;;;;;;;;5163867;27;19926;-73
2023/10/19 05:06:40;;;;;;;;;;;;;;;;;;5153051;27;19931;-72
2023/10/19 05:09:08;;;;;;;;;;;;;;;;;;5135343;27;19931;-73
2023/10/19 05:11:35;;;;;;;;;;;;;;;;;;5137228;27;19930;-73
2023/10/19 05:14:05;;;;;;;;;;;;;;;;;;5136064;27;19927;-73
2023/10/19 05:16:32;;;;;;;;;;;;;;;;;;5144753;27;19923;-72
2023/10/19 05:18:59;;;;;;;;;;;;;;;;;;5152619;27;20311;-73
2023/10/19 05:21:26;;;;;;;;;;;;;;;;;;5156004;27;20143;-73
2023/10/19 05:23:54;;;;;;;;;;;;;;;;;;5139133;27;20562;-73
2023/10/19 05:26:21;;;;;;;;;;;;;;;;;;5154153;27;20396;-75
2023/10/19 05:28:48;;;;;;;;;;;;;;;;;;5148880;27;19927;-73
2023/10/19 05:31:15;;;;;;;;;;;;;;;;;;5144854;27;19963;-74
2023/10/19 05:33:43;;;;;;;;;;;;;;;;;;5135141;27;19927;-73
2023/10/19 05:36:10;;;;;;;;;;;;;;;;;;5135715;27;19952;-73
2023/10/19 05:38:37;;;;;;;;;;;;;;;;;;5138003;27;19976;-73
2023/10/19 05:41:04;;;;;;;;;;;;;;;;;;5140028;27;19953;-73
2023/10/19 05:43:31;;;;;;;;;;;;;;;;;;5155734;27;20469;-73
2023/10/19 05:45:58;;;;;;;;;;;;;;;;;;5136782;27;19931;-73
2023/10/19 05:48:25;;;;;;;;;;;;;;;;;;5136356;27;19953;-73
2023/10/19 05:50:52;;;;;;;;;;;;;;;;;;5156640;27;19926;-73
2023/10/19 05:53:22;;;;;;;;;;;;;;;;;;5144911;27;19972;-72
2023/10/19 05:55:49;;;;;;;;;;;;;;;;;;5134985;27;19930;-73
2023/10/19 05:58:16;;;;;;;;;;;;;;;;;;5135070;27;20020;-74
2023/10/19 06:00:43;;;;;;;;;;;;;;;;;;5139923;27;19923;-70
2023/10/19 06:03:10;;;;;;;;;;;;;;;;;;5136416;27;20374;-72
2023/10/19 06:05:37;;;;;;;;;;;;;;;;;;5134840;27;20018;-72
2023/10/19 06:08:04;;;;;;;;;;;;;;;;;;5136825;27;19923;-72
2023/10/19 06:10:32;;;;;;;;;;;;;;;;;;5135118;27;20390;-72
2023/10/19 06:12:59;;;;;;;;;;;;;;;;;;5136671;27;19923;-71
2023/10/19 06:15:28;;;;;;;;;;;;;;;;;;5134759;27;19946;-72
2023/10/19 06:17:55;;;;;;;;;;;;;;;;;;5134146;27;19960;-73
2023/10/19 06:20:26;;;;;;;;;;;;;;;;;;5146931;27;20010;-73
2023/10/19 06:22:53;;;;;;;;;;;;;;;;;;5134436;27;20018;-73
2023/10/19 06:25:21;;;;;;;;;;;;;;;;;;5140020;27;19976;-74
2023/10/19 06:27:48;;;;;;;;;;;;;;;;;;5151149;27;19923;-73
2023/10/19 06:30:18;;;;;;;;;;;;;;;;;;5143927;27;19927;-73
2023/10/19 06:32:45;;;;;;;;;;;;;;;;;;5132060;27;19924;-72
2023/10/19 06:35:12;;;;;;;;;;;;;;;;;;5142696;27;20313;-74
2023/10/19 06:37:40;;;;;;;;;;;;;;;;;;5143158;27;20373;-73
2023/10/19 06:40:07;;;;;;;;;;;;;;;;;;5143859;27;19923;-72
2023/10/19 06:42:35;;;;;;;;;;;;;;;;;;5128931;27;20301;-72
2023/10/19 06:45:02;;;;;;;;;;;;;;;;;;5138400;27;20305;-72
2023/10/19 06:47:30;;;;;;;;;;;;;;;;;;5144097;27;19924;-72
2023/10/19 06:49:59;;;;;;;;;;;;;;;;;;5144692;27;19923;-71
2023/10/19 06:52:26;;;;;;;;;;;;;;;;;;5150122;27;19923;-71
2023/10/19 06:54:54;;;;;;;;;;;;;;;;;;5143992;27;20361;-74
2023/10/19 06:57:22;;;;;;;;;;;;;;;;;;5148105;27;19923;-71
2023/10/19 06:59:49;;;;;;;;;;;;;;;;;;5142688;27;20007;-70
2023/10/19 07:02:16;;;;;;;;;;;;;;;;;;5146303;27;19923;-71
2023/10/19 07:04:43;;;;;;;;;;;;;;;;;;5136944;27;20122;-71
2023/10/19 07:07:10;;;;;;;;;;;;;;;;;;5139484;27;19935;-71
2023/10/19 07:09:37;;;;;;;;;;;;;;;;;;5134923;27;19979;-70
2023/10/19 07:12:07;;;;;;;;;;;;;;;;;;5138719;27;19962;-69
2023/10/19 07:14:34;;;;;;;;;;;;;;;;;;5141639;27;20022;-70
2023/10/19 07:17:01;;;;;;;;;;;;;;;;;;5138073;27;20007;-71
2023/10/19 07:19:29;;;;;;;;;;;;;;;;;;5137432;27;19930;-70
2023/10/19 07:21:58;;;;;;;;;;;;;;;;;;5136486;27;19923;-69
2023/10/19 07:24:25;;;;;;;;;;;;;;;;;;5123148;27;19980;-70
2023/10/19 07:27:03;;;;;;;;;;;;;;;;;;5124871;27;19924;-71
2023/10/19 07:29:31;;;;;;;;;;;;;;;;;;5131530;27;20296;-71
2023/10/19 07:31:59;;;;;;;;;;;;;;;;;;5127244;27;19932;-70
2023/10/19 07:34:28;;;;;;;;;;;;;;;;;;5123812;27;19923;-70
2023/10/19 07:36:55;;;;;;;;;;;;;;;;;;5116662;27;19923;-70
2023/10/19 07:39:22;;;;;;;;;;;;;;;;;;5134543;27;20444;-70
2023/10/19 07:41:49;;;;;;;;;;;;;;;;;;5124205;27;20139;-70
2023/10/19 07:44:16;;;;;;;;;;;;;;;;;;5117530;27;20028;-70
2023/10/19 07:46:44;;;;;;;;;;;;;;;;;;5118771;27;19935;-72
2023/10/19 07:49:14;;;;;;;;;;;;;;;;;;5122579;27;20441;-71
2023/10/19 07:51:41;;;;;;;;;;;;;;;;;;5123380;27;19938;-70
2023/10/19 07:54:08;;;;;;;;;;;;;;;;;;5121675;27;20343;-71
2023/10/19 07:56:35;;;;;;;;;;;;;;;;;;5119887;27;20123;-70
2023/10/19 07:59:02;;;;;;;;;;;;;;;;;;5117744;27;20008;-72
2023/10/19 08:01:33;;;;;;;;;;;;;;;;;;5121436;27;19968;-70
2023/10/19 08:04:01;;;;;;;;;;;;;;;;;;5125738;27;19927;-71
2023/10/19 08:06:28;;;;;;;;;;;;;;;;;;5122838;27;19923;-71
2023/10/19 08:08:56;;;;;;;;;;;;;;;;;;5122217;27;20408;-70
2023/10/19 08:11:23;;;;;;;;;;;;;;;;;;5121567;27;19931;-70
2023/10/19 08:13:54;;;;;;;;;;;;;;;;;;5117968;27;20016;-72
2023/10/19 08:16:22;;;;;;;;;;;;;;;;;;5119329;27;19938;-71
2023/10/19 08:18:49;;;;;;;;;;;;;;;;;;5125720;27;20009;-73
2023/10/19 08:21:17;;;;;;;;;;;;;;;;;;5125453;27;20296;-72
2023/10/19 08:23:46;;;;;;;;;;;;;;;;;;5128257;27;19934;-72
2023/10/19 08:26:13;;;;;;;;;;;;;;;;;;5124231;27;19931;-72
2023/10/19 08:28:40;;;;;;;;;;;;;;;;;;5121857;27;19923;-71
2023/10/19 08:31:07;;;;;;;;;;;;;;;;;;5127431;27;19932;-71
2023/10/19 08:33:38;;;;;;;;;;;;;;;;;;5123142;28;19931;-73
2023/10/19 08:36:05;;;;;;;;;;;;;;;;;;5121402;27;20350;-71
2023/10/19 08:38:33;;;;;;;;;;;;;;;;;;5120786;27;19988;-71
2023/10/19 08:41:00;;;;;;;;;;;;;;;;;;5128045;27;20317;-71
2023/10/19 08:43:28;;;;;;;;;;;;;;;;;;5130247;27;19931;-71
2023/10/19 08:45:55;;;;;;;;;;;;;;;;;;5126954;27;19932;-71
2023/10/19 08:48:22;;;;;;;;;;;;;;;;;;5132571;27;19947;-71
2023/10/19 08:50:49;;;;;;;;;;;;;;;;;;5126603;27;20006;-71
2023/10/19 08:53:19;;;;;;;;;;;;;;;;;;5132695;27;19966;-71
2023/10/19 08:55:48;;;;;;;;;;;;;;;;;;5134855;27;19928;-71
2023/10/19 08:58:15;;;;;;;;;;;;;;;;;;5126436;27;19927;-71
2023/10/19 09:00:42;;;;;;;;;;;;;;;;;;5125682;27;20105;-70
2023/10/19 09:03:13;;;;;;;;;;;;;;;;;;5126944;27;20325;-71
2023/10/19 09:05:41;;;;;;;;;;;;;;;;;;5128101;27;20345;-70
2023/10/19 09:08:09;;;;;;;;;;;;;;;;;;5134441;27;20270;-70
2023/10/19 09:10:37;;;;;;;;;;;;;;;;;;5130596;27;20310;-70
2023/10/19 09:13:04;;;;;;;;;;;;;;;;;;5139477;27;19968;-71
2023/10/19 09:15:32;;;;;;;;;;;;;;;;;;5127236;27;19988;-70
2023/10/19 09:17:59;;;;;;;;;;;;;;;;;;5129888;27;19926;-70
2023/10/19 09:20:28;;;;;;;;;;;;;;;;;;5125852;27;20373;-70
2023/10/19 09:22:56;;;;;;;;;;;;;;;;;;5131794;27;19931;-72
2023/10/19 09:25:24;;;;;;;;;;;;;;;;;;5139074;27;19923;-71
2023/10/19 09:27:51;;;;;;;;;;;;;;;;;;5134124;27;19930;-71
2023/10/19 09:30:19;;;;;;;;;;;;;;;;;;5129334;27;20026;-71
2023/10/19 09:32:46;;;;;;;;;;;;;;;;;;5127537;27;19958;-71
2023/10/19 09:35:15;;;;;;;;;;;;;;;;;;5125739;27;20385;-71
2023/10/19 09:37:42;;;;;;;;;;;;;;;;;;5124545;27;19970;-71
2023/10/19 09:40:12;;;;;;;;;;;;;;;;;;5130941;27;19928;-71
2023/10/19 09:42:42;;;;;;;;;;;;;;;;;;5136941;27;19924;-71
2023/10/19 09:45:10;;;;;;;;;;;;;;;;;;5132184;27;20022;-71
2023/10/19 09:47:37;;;;;;;;;;;;;;;;;;5132728;27;19927;-70
2023/10/19 09:50:05;;;;;;;;;;;;;;;;;;5140672;27;20403;-71
2023/10/19 09:52:32;;;;;;;;;;;;;;;;;;5138692;27;20010;-70
2023/10/19 09:54:59;;;;;;;;;;;;;;;;;;5147748;27;19976;-71
2023/10/19 09:57:27;;;;;;;;;;;;;;;;;;5142977;27;20313;-70
2023/10/19 09:59:54;;;;;;;;;;;;;;;;;;5137321;27;20021;-70
2023/10/19 10:02:22;;;;;;;;;;;;;;;;;;5139280;27;20370;-71
2023/10/19 10:04:49;;;;;;;;;;;;;;;;;;5146345;27;19928;-71
2023/10/19 10:07:16;;;;;;;;;;;;;;;;;;5141310;27;19923;-69
2023/10/19 10:09:44;;;;;;;;;;;;;;;;;;5141891;27;20238;-70
2023/10/19 10:12:11;;;;;;;;;;;;;;;;;;5140611;27;19923;-69
2023/10/19 10:14:38;;;;;;;;;;;;;;;;;;5141009;27;19995;-70
2023/10/19 10:17:05;;;;;;;;;;;;;;;;;;5149229;27;19923;-69
2023/10/19 10:19:36;;;;;;;;;;;;;;;;;;5143849;27;19931;-70
2023/10/19 10:22:04;;;;;;;;;;;;;;;;;;5132345;27;19928;-73
2023/10/19 10:24:31;;;;;;;;;;;;;;;;;;5132768;27;19923;-73
2023/10/19 10:26:59;;;;;;;;;;;;;;;;;;5133284;27;19984;-72
2023/10/19 10:29:28;;;;;;;;;;;;;;;;;;5132262;27;19970;-73
2023/10/19 10:31:55;;;;;;;;;;;;;;;;;;5131181;27;19975;-73
2023/10/19 10:34:22;;;;;;;;;;;;;;;;;;5135509;27;19983;-73
2023/10/19 10:36:49;;;;;;;;;;;;;;;;;;5142473;27;19991;-73
2023/10/19 10:39:17;;;;;;;;;;;;;;;;;;5143075;27;19923;-73
2023/10/19 10:41:45;;;;;;;;;;;;;;;;;;5140533;27;19930;-73
2023/10/19 10:44:12;;;;;;;;;;;;;;;;;;5140100;27;19970;-73
2023/10/19 10:46:40;;;;;;;;;;;;;;;;;;5140295;27;19984;-74
2023/10/19 10:49:06;;;;;;;;;;;;;;;;;;5144411;27;19923;-73
2023/10/19 10:51:36;;;;;;;;;;;;;;;;;;5136009;27;20086;-73
2023/10/19 10:54:03;;;;;;;;;;;;;;;;;;5142944;27;19976;-74
2023/10/19 10:56:31;;;;;;;;;;;;;;;;;;5142911;27;19986;-73
2023/10/19 10:59:01;;;;;;;;;;;;;;;;;;5138861;27;20389;-72
2023/10/19 11:01:28;;;;;;;;;;;;;;;;;;5137877;27;19942;-73
2023/10/19 11:03:55;;;;;;;;;;;;;;;;;;5138150;27;19923;-72
2023/10/19 11:06:23;;;;;;;;;;;;;;;;;;5139879;27;19929;-73
2023/10/19 11:08:50;;;;;;;;;;;;;;;;;;5140879;27;19930;-72
2023/10/19 11:11:17;;;;;;;;;;;;;;;;;;5142392;27;19976;-72
2023/10/19 11:13:44;;;;;;;;;;;;;;;;;;5148355;27;19927;-72
2023/10/19 11:16:11;;;;;;;;;;;;;;;;;;5131338;27;20008;-72
2023/10/19 11:18:39;;;;;;;;;;;;;;;;;;5132378;27;19968;-71
2023/10/19 11:21:07;;;;;;;;;;;;;;;;;;5132760;27;19928;-71
2023/10/19 11:23:34;;;;;;;;;;;;;;;;;;5132299;27;19931;-72
2023/10/19 11:26:02;;;;;;;;;;;;;;;;;;5132390;27;19923;-73
2023/10/19 11:28:29;;;;;;;;;;;;;;;;;;5142854;27;19982;-72
2023/10/19 11:30:56;;;;;;;;;;;;;;;;;;5136038;27;19923;-73
2023/10/19 11:33:25;;;;;;;;;;;;;;;;;;5137186;27;19991;-73
2023/10/19 11:35:52;;;;;;;;;;;;;;;;;;5133742;27;19923;-75
2023/10/19 11:38:19;;;;;;;;;;;;;;;;;;5142308;27;19923;-74
2023/10/19 11:40:46;;;;;;;;;;;;;;;;;;5138854;27;19923;-74
2023/10/19 11:43:13;;;;;;;;;;;;;;;;;;5142647;27;20385;-72
2023/10/19 11:45:42;;;;;;;;;;;;;;;;;;5142210;27;19967;-72
2023/10/19 11:48:09;;;;;;;;;;;;;;;;;;5136030;27;19934;-71
2023/10/19 11:50:36;;;;;;;;;;;;;;;;;;5193113;22;19931;-71
2023/10/19 11:53:05;;;;;;;;;;;;;;;;;;5047269;28;19940;-71
2023/10/19 11:55:32;;;;;;;;;;;;;;;;;;5043432;28;20277;-72
2023/10/19 11:57:59;;;;;;;;;;;;;;;;;;5039346;28;19925;-71
2023/10/19 12:00:33;;;;;;;;;;;;;;;;;;5043878;28;20470;-73
2023/10/19 12:03:00;;;;;;;;;;;;;;;;;;5038320;28;19929;-73
2023/10/19 12:05:28;;;;;;;;;;;;;;;;;;5042689;28;19990;-73
2023/10/19 12:07:56;;;;;;;;;;;;;;;;;;5043646;28;19937;-73
2023/10/19 12:10:28;;;;;;;;;;;;;;;;;;5039827;28;20023;-73
2023/10/19 12:12:56;;;;;;;;;;;;;;;;;;5042036;28;19939;-73
2023/10/19 12:15:25;;;;;;;;;;;;;;;;;;5037066;28;20022;-73
2023/10/19 12:17:54;;;;;;;;;;;;;;;;;;5036727;28;19925;-73
2023/10/19 12:20:22;;;;;;;;;;;;;;;;;;5039430;28;19928;-72
2023/10/19 12:22:52;;;;;;;;;;;;;;;;;;5046552;28;19987;-73
2023/10/19 12:25:19;;;;;;;;;;;;;;;;;;5046983;28;20022;-73
2023/10/19 12:27:46;;;;;;;;;;;;;;;;;;5049648;28;20475;-72
2023/10/19 12:30:20;;;;;;;;;;;;;;;;;;5045087;28;19970;-73
2023/10/19 12:32:49;;;;;;;;;;;;;;;;;;5049614;28;19938;-73
2023/10/19 12:35:18;;;;;;;;;;;;;;;;;;5040484;28;19924;-73
2023/10/19 12:37:51;;;;;;;;;;;;;;;;;;5037497;28;19956;-72
2023/10/19 12:40:28;;;;;;;;;;;;;;;;;;5042937;28;19929;-73
2023/10/19 12:42:55;;;;;;;;;;;;;;;;;;5043650;28;19972;-72
2023/10/19 12:45:22;;;;;;;;;;;;;;;;;;5048170;28;19970;-73
2023/10/19 12:47:51;;;;;;;;;;;;;;;;;;5048189;28;19925;-73
2023/10/19 12:50:19;;;;;;;;;;;;;;;;;;5049313;28;20391;-72
2023/10/19 12:52:46;;;;;;;;;;;;;;;;;;5045508;28;19932;-75
2023/10/19 12:55:13;;;;;;;;;;;;;;;;;;5046740;28;19994;-75
2023/10/19 12:57:41;;;;;;;;;;;;;;;;;;5035275;28;20048;-76
2023/10/19 13:02:49;;;;;;;;;;;;;;;;;;5045824;28;19933;-76
2023/10/19 13:05:18;;;;;;;;;;;;;;;;;;5037900;28;19932;-75
2023/10/19 13:07:45;;;;;;;;;;;;;;;;;;5041871;28;19932;-76
2023/10/19 13:10:12;;;;;;;;;;;;;;;;;;5041239;28;20395;-76
2023/10/19 13:12:40;;;;;;;;;;;;;;;;;;5033980;28;19929;-74
2023/10/19 13:15:12;;;;;;;;;;;;;;;;;;5033691;28;19943;-76
2023/10/19 13:17:39;;;;;;;;;;;;;;;;;;5039867;28;19933;-76
2023/10/19 13:20:16;;;;;;;;;;;;;;;;;;5044395;28;19925;-76
2023/10/19 13:22:43;;;;;;;;;;;;;;;;;;5041006;28;19932;-76
2023/10/19 13:25:12;;;;;;;;;;;;;;;;;;5035781;28;19972;-77
2023/10/19 13:27:41;;;;;;;;;;;;;;;;;;5047622;28;20320;-72
2023/10/19 13:30:10;;;;;;;;;;;;;;;;;;5044430;28;19979;-73
2023/10/19 13:32:37;;;;;;;;;;;;;;;;;;5045229;28;19933;-73
2023/10/19 13:35:04;;;;;;;;;;;;;;;;;;5043435;28;20379;-73
2023/10/19 13:37:32;;;;;;;;;;;;;;;;;;5049085;28;19925;-74
2023/10/19 13:39:59;;;;;;;;;;;;;;;;;;5044740;28;20378;-73
2023/10/19 13:42:26;;;;;;;;;;;;;;;;;;5045112;28;19957;-72
2023/10/19 13:44:54;;;;;;;;;;;;;;;;;;5045112;28;19971;-72
2023/10/19 13:47:21;;;;;;;;;;;;;;;;;;5047838;28;20425;-72
2023/10/19 13:49:48;;;;;;;;;;;;;;;;;;5046416;28;19945;-72
2023/10/19 13:52:16;;;;;;;;;;;;;;;;;;5042996;28;19963;-72
2023/10/19 13:54:43;;;;;;;;;;;;;;;;;;5034680;28;20008;-72
2023/10/19 13:57:10;;;;;;;;;;;;;;;;;;5038280;28;19925;-72
2023/10/19 13:59:37;;;;;;;;;;;;;;;;;;5035411;28;20010;-73
2023/10/19 14:02:04;;;;;;;;;;;;;;;;;;5038043;28;19925;-73
2023/10/19 14:04:31;;;;;;;;;;;;;;;;;;5035178;28;19971;-73
2023/10/19 14:06:58;;;;;;;;;;;;;;;;;;5038125;28;19976;-72
2023/10/19 14:09:26;;;;;;;;;;;;;;;;;;5035689;28;20340;-73
2023/10/19 14:11:53;;;;;;;;;;;;;;;;;;5039247;28;19968;-73
2023/10/19 14:14:21;;;;;;;;;;;;;;;;;;5035284;28;19958;-72
2023/10/19 14:16:50;;;;;;;;;;;;;;;;;;5032523;28;19936;-73
2023/10/19 14:19:17;;;;;;;;;;;;;;;;;;5033744;28;19959;-72
2023/10/19 14:21:46;;;;;;;;;;;;;;;;;;5037707;28;19944;-72
2023/10/19 14:24:13;;;;;;;;;;;;;;;;;;5036373;28;20044;-72
2023/10/19 14:26:42;;;;;;;;;;;;;;;;;;5037005;28;20122;-73
2023/10/19 14:29:09;;;;;;;;;;;;;;;;;;5036806;28;19992;-72
2023/10/19 14:31:36;;;;;;;;;;;;;;;;;;5034762;28;19929;-73
2023/10/19 14:34:03;;;;;;;;;;;;;;;;;;5034151;28;20030;-73
2023/10/19 14:36:30;;;;;;;;;;;;;;;;;;5034128;28;20099;-73
2023/10/19 14:38:57;;;;;;;;;;;;;;;;;;5037398;28;20694;-73
2023/10/19 14:41:24;;;;;;;;;;;;;;;;;;5033122;28;19929;-73
2023/10/19 14:43:51;;;;;;;;;;;;;;;;;;5039844;28;19960;-73
2023/10/19 14:46:18;;;;;;;;;;;;;;;;;;5042600;28;20102;-73
2023/10/19 14:48:46;;;;;;;;;;;;;;;;;;5041937;28;19936;-73
2023/10/19 14:51:13;;;;;;;;;;;;;;;;;;5044651;28;20462;-72
2023/10/19 14:53:40;;;;;;;;;;;;;;;;;;5044008;28;19925;-72
2023/10/19 14:56:07;;;;;;;;;;;;;;;;;;5040889;28;20461;-72
2023/10/19 14:58:34;;;;;;;;;;;;;;;;;;5037340;28;19933;-73
2023/10/19 15:01:01;;;;;;;;;;;;;;;;;;5041021;28;20553;-72
2023/10/19 15:03:29;;;;;;;;;;;;;;;;;;5042904;28;19990;-72
2023/10/19 15:05:58;;;;;;;;;;;;;;;;;;5045715;28;19931;-72
2023/10/19 15:08:28;;;;;;;;;;;;;;;;;;5043993;28;20413;-73
2023/10/19 15:10:55;;;;;;;;;;;;;;;;;;5038325;28;19924;-72
2023/10/19 15:13:22;;;;;;;;;;;;;;;;;;5041611;28;20015;-72
2023/10/19 15:15:49;;;;;;;;;;;;;;;;;;5043108;28;19924;-73
2023/10/19 15:18:17;;;;;;;;;;;;;;;;;;5041038;28;20015;-72
2023/10/19 15:20:44;;;;;;;;;;;;;;;;;;5044901;28;20443;-72
2023/10/19 15:23:12;;;;;;;;;;;;;;;;;;5043989;28;19932;-73
2023/10/19 15:25:40;;;;;;;;;;;;;;;;;;5046778;28;19939;-72
2023/10/19 15:28:08;;;;;;;;;;;;;;;;;;5039850;28;20000;-72
2023/10/19 15:30:36;;;;;;;;;;;;;;;;;;5046889;28;19970;-71
2023/10/19 15:33:03;;;;;;;;;;;;;;;;;;5039106;28;19924;-72
2023/10/19 15:35:30;;;;;;;;;;;;;;;;;;5033975;28;19972;-74
2023/10/19 15:37:57;;;;;;;;;;;;;;;;;;5037578;28;19936;-74
2023/10/19 15:40:24;;;;;;;;;;;;;;;;;;5042427;28;19932;-71
2023/10/19 15:42:53;;;;;;;;;;;;;;;;;;5036786;28;20368;-73
2023/10/19 15:45:20;;;;;;;;;;;;;;;;;;5032851;28;19933;-74
2023/10/19 15:47:47;;;;;;;;;;;;;;;;;;5035145;28;19980;-73
2023/10/19 15:50:14;;;;;;;;;;;;;;;;;;5035645;28;19956;-73
2023/10/19 15:52:42;;;;;;;;;;;;;;;;;;5042070;28;19948;-73
2023/10/19 15:55:10;;;;;;;;;;;;;;;;;;5035853;28;20351;-73
2023/10/19 15:57:37;;;;;;;;;;;;;;;;;;5040921;28;19933;-73
2023/10/19 16:00:04;;;;;;;;;;;;;;;;;;5040231;28;19929;-74
2023/10/19 16:02:31;;;;;;;;;;;;;;;;;;5034093;28;19925;-74
2023/10/19 16:04:58;;;;;;;;;;;;;;;;;;5034236;28;19933;-74
2023/10/19 16:07:25;;;;;;;;;;;;;;;;;;5032799;28;19925;-73
2023/10/19 16:09:52;;;;;;;;;;;;;;;;;;5046036;28;19979;-73
2023/10/19 16:12:19;;;;;;;;;;;;;;;;;;5047783;28;19924;-73
2023/10/19 16:14:46;;;;;;;;;;;;;;;;;;5045614;28;19928;-73
2023/10/19 16:17:16;;;;;;;;;;;;;;;;;;5046241;28;20272;-73
2023/10/19 16:19:43;;;;;;;;;;;;;;;;;;5045566;28;20046;-74
2023/10/19 16:22:12;;;;;;;;;;;;;;;;;;5042968;28;19979;-73
2023/10/19 16:24:39;;;;;;;;;;;;;;;;;;5031907;28;20292;-72
2023/10/19 16:27:07;;;;;;;;;;;;;;;;;;5041193;28;20332;-73
2023/10/19 16:29:34;;;;;;;;;;;;;;;;;;5037103;28;19932;-73
2023/10/19 16:32:01;;;;;;;;;;;;;;;;;;5041084;28;20383;-73
2023/10/19 16:34:28;;;;;;;;;;;;;;;;;;5037335;28;19925;-73
2023/10/19 16:36:55;;;;;;;;;;;;;;;;;;5035922;28;19979;-73
2023/10/19 16:39:22;;;;;;;;;;;;;;;;;;5035140;28;19925;-73
2023/10/19 16:41:50;;;;;;;;;;;;;;;;;;5044343;28;19982;-73
2023/10/19 16:44:18;;;;;;;;;;;;;;;;;;5037791;28;19925;-73
2023/10/19 16:46:45;;;;;;;;;;;;;;;;;;5040905;28;20431;-73
2023/10/19 16:49:13;;;;;;;;;;;;;;;;;;5037519;28;19995;-73
2023/10/19 16:51:42;;;;;;;;;;;;;;;;;;5037994;28;19948;-73
2023/10/19 16:54:09;;;;;;;;;;;;;;;;;;5036966;28;19931;-74
2023/10/19 16:56:36;;;;;;;;;;;;;;;;;;5034431;28;19925;-73
2023/10/19 16:59:06;;;;;;;;;;;;;;;;;;5035560;28;20371;-74
2023/10/19 17:01:33;;;;;;;;;;;;;;;;;;5037220;28;19932;-73